Time;durP1;ratioP1;P1;durP2;ratioP2;P2;SDS_P1;SDS_P2;PMS_P1;PMS_P2;Temp;Humidity;BMP_temperature;BMP_pressure;BME280_temperature;BME280_humidity;BME280_pressure;Samples;Min_cycle;Max_cycle;Signal;HPM_P1;HPM_P2
2024/04/09 00:15:49;;;;;;;3.42;0.50;;;;;;;;;;21965069;26;20006;-45
2024/04/09 00:25:51;;;;;;;3.88;0.55;;;;;;;;;;21967169;26;20002;-45
2024/04/09 00:35:53;;;;;;;2.53;0.38;;;;;;;;;;21985305;26;20006;-46
2024/04/09 00:45:55;;;;;;;3.67;0.50;;;;;;;;;;21972440;26;20014;-46
2024/04/09 00:55:57;;;;;;;2.33;0.52;;;;;;;;;;21952321;26;20017;-45
2024/04/09 01:27:44;;;;;;;1.55;0.52;;;;;;;;;;21987603;26;20001;-43
2024/04/09 01:37:47;;;;;;;3.03;0.55;;;;;;;;;;21969960;26;20028;-44
2024/04/09 01:59:45;;;;;;;1.63;0.22;;;;;;;;;;21978585;26;20012;-47
2024/04/09 02:09:49;;;;;;;3.30;0.30;;;;;;;;;;21983668;26;20017;-43
2024/04/09 02:19:50;;;;;;;4.75;0.40;;;;;;;;;;21935846;26;19996;-44
2024/04/09 02:29:52;;;;;;;2.85;0.40;;;;;;;;;;21944010;26;20429;-46
2024/04/09 02:39:53;;;;;;;0.90;0.30;;;;;;;;;;21948138;26;20326;-43
2024/04/09 02:49:56;;;;;;;2.78;1.08;;;;;;;;;;21973634;26;20541;-43
2024/04/09 02:59:58;;;;;;;2.38;0.52;;;;;;;;;;21960892;26;20481;-42
2024/04/09 03:09:59;;;;;;;1.42;0.25;;;;;;;;;;21977436;26;20001;-43
2024/04/09 03:20:01;;;;;;;2.20;0.40;;;;;;;;;;21963028;26;20029;-44
2024/04/09 03:30:04;;;;;;;3.45;0.30;;;;;;;;;;21949151;26;20002;-44
2024/04/09 03:40:07;;;;;;;1.45;0.30;;;;;;;;;;21962963;26;20037;-45
2024/04/09 03:50:08;;;;;;;1.83;0.32;;;;;;;;;;21987903;26;20045;-45
2024/04/09 04:00:12;;;;;;;1.75;0.30;;;;;;;;;;21940300;26;20065;-45
2024/04/09 04:10:13;;;;;;;4.88;0.60;;;;;;;;;;21937246;26;20635;-45
2024/04/09 04:20:15;;;;;;;6.45;1.27;;;;;;;;;;21950010;26;20001;-43
2024/04/09 04:30:16;;;;;;;3.35;0.47;;;;;;;;;;21953179;26;20006;-43
2024/04/09 04:40:18;;;;;;;2.45;0.50;;;;;;;;;;21949816;26;20011;-43
2024/04/09 04:50:20;;;;;;;2.20;0.47;;;;;;;;;;21970443;26;20006;-45
2024/04/09 05:00:22;;;;;;;3.78;0.55;;;;;;;;;;21957846;26;20416;-43
2024/04/09 05:10:23;;;;;;;3.95;1.27;;;;;;;;;;21954160;26;20042;-45
2024/04/09 05:20:29;;;;;;;1.08;0.25;;;;;;;;;;21958223;26;20009;-44
2024/04/09 05:30:31;;;;;;;3.40;0.73;;;;;;;;;;21968609;26;20002;-45
2024/04/09 05:40:34;;;;;;;3.78;0.50;;;;;;;;;;21970817;26;20026;-44
2024/04/09 05:50:36;;;;;;;1.33;0.50;;;;;;;;;;21971488;26;20032;-44
2024/04/09 06:00:39;;;;;;;2.10;0.65;;;;;;;;;;21984609;26;20120;-46
2024/04/09 06:10:42;;;;;;;3.60;0.73;;;;;;;;;;21970460;26;20153;-43
2024/04/09 06:20:45;;;;;;;3.30;0.50;;;;;;;;;;21970476;26;20002;-43
2024/04/09 06:30:47;;;;;;;4.50;0.87;;;;;;;;;;21986423;26;20454;-45
2024/04/09 06:40:53;;;;;;;4.00;1.00;;;;;;;;;;21961423;26;20040;-44
2024/04/09 06:50:55;;;;;;;3.28;1.10;;;;;;;;;;21960385;26;20089;-44
2024/04/09 07:00:57;;;;;;;6.03;1.30;;;;;;;;;;21970241;26;20034;-44
2024/04/09 07:10:58;;;;;;;3.30;0.70;;;;;;;;;;21957583;26;20453;-44
2024/04/09 07:21:01;;;;;;;2.42;0.77;;;;;;;;;;21954690;26;20080;-44
2024/04/09 07:31:03;;;;;;;6.18;0.80;;;;;;;;;;21985119;26;20013;-43
2024/04/09 07:41:09;;;;;;;4.45;0.95;;;;;;;;;;22003199;26;20011;-43
2024/04/09 07:51:11;;;;;;;6.43;1.15;;;;;;;;;;22001534;26;20016;-44
2024/04/09 08:01:12;;;;;;;10.48;1.65;;;;;;;;;;21938578;26;20449;-45
2024/04/09 08:11:14;;;;;;;10.60;1.45;;;;;;;;;;21961053;26;20396;-43
2024/04/09 08:21:16;;;;;;;7.05;1.38;;;;;;;;;;21976389;26;20010;-52
2024/04/09 08:31:18;;;;;;;6.80;1.42;;;;;;;;;;21991082;26;20314;-53
2024/04/09 08:41:20;;;;;;;7.55;1.30;;;;;;;;;;21972467;26;20005;-53
2024/04/09 08:51:23;;;;;;;6.15;1.75;;;;;;;;;;21975317;26;20051;-52
2024/04/09 09:01:28;;;;;;;4.00;0.93;;;;;;;;;;21986327;26;20001;-51
2024/04/09 09:11:30;;;;;;;5.03;0.60;;;;;;;;;;21984845;26;20008;-52
2024/04/09 09:21:32;;;;;;;5.25;1.02;;;;;;;;;;21961204;26;20287;-52
2024/04/09 09:31:39;;;;;;;3.28;0.40;;;;;;;;;;21925973;26;20006;-50
2024/04/09 09:41:43;;;;;;;2.33;0.90;;;;;;;;;;21987418;26;20103;-49
2024/04/09 09:51:46;;;;;;;2.05;0.50;;;;;;;;;;21965827;27;20006;-52
2024/04/09 10:01:50;;;;;;;3.42;0.60;;;;;;;;;;21988397;26;20012;-52
2024/04/09 10:11:52;;;;;;;2.15;0.60;;;;;;;;;;21952012;26;20053;-52
2024/04/09 10:21:54;;;;;;;9.45;1.02;;;;;;;;;;21970453;26;20003;-52
2024/04/09 10:31:56;;;;;;;1.27;0.40;;;;;;;;;;21959436;26;20440;-52
2024/04/09 10:41:59;;;;;;;3.50;0.80;;;;;;;;;;21975739;26;20009;-52
2024/04/09 10:52:01;;;;;;;3.80;1.08;;;;;;;;;;21951317;26;20396;-53
2024/04/09 11:02:05;;;;;;;3.25;0.88;;;;;;;;;;21973048;26;20420;-51
2024/04/09 11:12:08;;;;;;;3.72;0.80;;;;;;;;;;21961552;26;20001;-52
2024/04/09 11:22:11;;;;;;;1.70;0.57;;;;;;;;;;21966227;26;20027;-52
2024/04/09 11:32:40;;;;;;;3.75;1.38;;;;;;;;;;21972900;26;20452;-50
2024/04/09 11:42:43;;;;;;;1.83;0.60;;;;;;;;;;21988462;26;20005;-52
2024/04/09 11:52:45;;;;;;;5.40;0.90;;;;;;;;;;21957785;26;20016;-52
2024/04/09 12:02:49;;;;;;;6.60;1.00;;;;;;;;;;21985678;26;20122;-52
2024/04/09 12:12:51;;;;;;;3.43;0.50;;;;;;;;;;21977341;26;20046;-50
2024/04/09 12:22:53;;;;;;;3.15;0.70;;;;;;;;;;21964620;26;20455;-51
2024/04/09 12:43:52;;;;;;;6.55;1.02;;;;;;;;;;21948760;26;20033;-53
2024/04/09 12:53:54;;;;;;;3.95;0.88;;;;;;;;;;21956647;26;20092;-52
2024/04/09 13:03:56;;;;;;;1.55;0.40;;;;;;;;;;21971176;26;20001;-51
2024/04/09 13:13:57;;;;;;;2.75;0.68;;;;;;;;;;21965422;26;20012;-50
2024/04/09 13:23:59;;;;;;;4.10;0.90;;;;;;;;;;21958332;26;20001;-51
2024/04/09 13:34:02;;;;;;;3.05;0.43;;;;;;;;;;21964660;26;20029;-51
2024/04/09 13:44:04;;;;;;;1.73;0.43;;;;;;;;;;21984269;26;20013;-52
2024/04/09 13:54:07;;;;;;;2.72;0.77;;;;;;;;;;21960457;26;20079;-51
2024/04/09 14:04:10;;;;;;;4.20;0.52;;;;;;;;;;21956685;26;20002;-51
2024/04/09 14:14:40;;;;;;;1.00;0.20;;;;;;;;;;21977055;26;20001;-53
2024/04/09 14:24:42;;;;;;;1.30;0.30;;;;;;;;;;21977432;26;20005;-52
2024/04/09 14:34:44;;;;;;;3.05;0.60;;;;;;;;;;21978495;26;20090;-51
2024/04/09 14:56:02;;;;;;;2.78;0.70;;;;;;;;;;21963929;26;20042;-49
2024/04/09 15:06:03;;;;;;;2.28;0.38;;;;;;;;;;21955351;26;20998;-49
2024/04/09 15:16:05;;;;;;;1.80;0.35;;;;;;;;;;21962262;26;20010;-49
2024/04/09 15:26:08;;;;;;;0.82;0.35;;;;;;;;;;21955019;26;20001;-49
2024/04/09 15:36:11;;;;;;;5.82;0.70;;;;;;;;;;21965218;26;20329;-50
2024/04/09 15:46:37;;;;;;;1.37;0.50;;;;;;;;;;21955767;26;20016;-49
2024/04/09 15:56:39;;;;;;;4.38;0.50;;;;;;;;;;21987980;26;20002;-49
2024/04/09 16:06:41;;;;;;;1.67;0.40;;;;;;;;;;21960573;26;20007;-49
2024/04/09 16:16:45;;;;;;;4.35;0.40;;;;;;;;;;21980692;26;20002;-49
2024/04/09 16:26:47;;;;;;;;;;;;;;;;;;21973934;26;20015;-53
2024/04/09 16:36:49;;;;;;;3.10;0.85;;;;;;;;;;21957168;26;19933;-51
2024/04/09 16:46:50;;;;;;;1.60;0.43;;;;;;;;;;21974729;26;20001;-52
2024/04/09 16:56:52;;;;;;;2.88;0.22;;;;;;;;;;21973117;26;20001;-50
2024/04/09 17:06:54;;;;;;;1.92;0.30;;;;;;;;;;21955087;26;20020;-51
2024/04/09 17:16:55;;;;;;;2.70;0.65;;;;;;;;;;21972615;26;20016;-53
2024/04/09 17:26:57;;;;;;;3.03;0.60;;;;;;;;;;21977574;26;20069;-52
2024/04/09 17:36:59;;;;;;;1.50;0.52;;;;;;;;;;21966718;26;20010;-50
2024/04/09 17:47:02;;;;;;;1.48;0.40;;;;;;;;;;21969177;26;20002;-50
2024/04/09 17:57:04;;;;;;;4.95;0.50;;;;;;;;;;21943646;26;20017;-51
2024/04/09 18:07:07;;;;;;;3.10;0.90;;;;;;;;;;21960319;26;20180;-51
2024/04/09 18:17:12;;;;;;;7.50;3.13;;;;;;;;;;21979250;26;20506;-50
2024/04/09 18:27:16;;;;;;;5.35;1.60;;;;;;;;;;21963299;26;20005;-50
2024/04/09 18:37:18;;;;;;;5.75;1.20;;;;;;;;;;21998610;26;20317;-54
2024/04/09 18:47:19;;;;;;;3.28;1.38;;;;;;;;;;21971054;26;20456;-50
2024/04/09 18:57:22;;;;;;;3.25;1.02;;;;;;;;;;21980548;26;20017;-48
2024/04/09 19:07:24;;;;;;;5.93;1.77;;;;;;;;;;21973487;26;20010;-50
2024/04/09 19:17:38;;;;;;;7.50;1.30;;;;;;;;;;21979093;26;20021;-51
2024/04/09 19:27:39;;;;;;;7.32;2.30;;;;;;;;;;21997031;26;20001;-50
2024/04/09 19:37:42;;;;;;;3.97;0.70;;;;;;;;;;21988387;26;20001;-49
2024/04/09 19:47:44;;;;;;;5.05;1.45;;;;;;;;;;22026788;26;20005;-50
2024/04/09 19:57:49;;;;;;;3.15;1.08;;;;;;;;;;21980615;26;19998;-52
2024/04/09 20:07:51;;;;;;;4.80;0.82;;;;;;;;;;22000809;26;20009;-53
2024/04/09 20:17:53;;;;;;;4.07;1.02;;;;;;;;;;22013399;26;20464;-53
2024/04/09 20:27:55;;;;;;;4.00;0.85;;;;;;;;;;22008109;26;20360;-50
2024/04/09 20:37:57;;;;;;;3.40;0.90;;;;;;;;;;21993691;26;20005;-52
2024/04/09 20:47:59;;;;;;;3.95;0.90;;;;;;;;;;21989956;26;20148;-47
2024/04/09 20:58:35;;;;;;;2.78;0.50;;;;;;;;;;21985752;26;19997;-46
2024/04/09 21:08:36;;;;;;;3.00;0.93;;;;;;;;;;21972137;26;20070;-46
2024/04/09 21:18:38;;;;;;;2.53;0.88;;;;;;;;;;21998741;26;20001;-43
2024/04/09 21:28:39;;;;;;;1.88;0.50;;;;;;;;;;22011278;26;20429;-42
2024/04/09 21:38:41;;;;;;;2.92;0.60;;;;;;;;;;21993697;26;20046;-43
2024/04/09 21:48:43;;;;;;;2.50;0.63;;;;;;;;;;21992473;26;20042;-43
2024/04/09 21:58:45;;;;;;;3.50;0.63;;;;;;;;;;22011727;26;20029;-44
2024/04/09 22:08:51;;;;;;;1.35;0.55;;;;;;;;;;21984565;26;20005;-43
2024/04/09 22:18:53;;;;;;;2.00;0.60;;;;;;;;;;21996670;26;20591;-42
2024/04/09 22:28:54;;;;;;;3.20;0.60;;;;;;;;;;22013026;26;20019;-43
2024/04/09 22:38:56;;;;;;;2.42;0.57;;;;;;;;;;22015121;26;20436;-43
2024/04/09 22:48:58;;;;;;;1.38;0.40;;;;;;;;;;22018190;26;20016;-44
2024/04/09 22:59:00;;;;;;;3.30;0.60;;;;;;;;;;21996443;26;20012;-42
2024/04/09 23:09:03;;;;;;;4.78;1.08;;;;;;;;;;22007738;26;20041;-43
2024/04/09 23:19:05;;;;;;;2.58;0.80;;;;;;;;;;22006097;26;20013;-42
2024/04/09 23:29:06;;;;;;;2.97;0.85;;;;;;;;;;21992981;26;20018;-43
2024/04/09 23:39:08;;;;;;;3.53;1.15;;;;;;;;;;22007999;26;20004;-43
2024/04/09 23:49:11;;;;;;;2.90;0.57;;;;;;;;;;22017634;26;20020;-48
2024/04/09 23:59:15;;;;;;;2.53;0.75;;;;;;;;;;21987221;26;20820;-45
